sensor_id;sensor_type;location;lat;lon;timestamp;P1;durP1;ratioP1;P2;durP2;ratioP2
51034;SDS011;37062;52.546;13.230;2023-02-15T00:02:09;28.93;;;18.07;;
51034;SDS011;37062;52.546;13.230;2023-02-15T00:04:37;27.83;;;17.93;;
51034;SDS011;37062;52.546;13.230;2023-02-15T00:07:14;30.33;;;17.63;;
51034;SDS011;37062;52.546;13.230;2023-02-15T00:09:44;24.07;;;16.27;;
51034;SDS011;37062;52.546;13.230;2023-02-15T00:12:13;27.83;;;18.43;;
51034;SDS011;37062;52.546;13.230;2023-02-15T00:14:42;35.10;;;19.58;;
51034;SDS011;37062;52.546;13.230;2023-02-15T00:17:11;30.23;;;20.03;;
51034;SDS011;37062;52.546;13.230;2023-02-15T00:19:40;31.80;;;20.00;;
51034;SDS011;37062;52.546;13.230;2023-02-15T00:22:08;33.90;;;21.47;;
51034;SDS011;37062;52.546;13.230;2023-02-15T00:24:36;30.87;;;20.17;;
51034;SDS011;37062;52.546;13.230;2023-02-15T00:27:04;32.00;;;20.00;;
51034;SDS011;37062;52.546;13.230;2023-02-15T00:29:32;33.53;;;19.80;;
51034;SDS011;37062;52.546;13.230;2023-02-15T00:32:01;30.80;;;19.20;;
51034;SDS011;37062;52.546;13.230;2023-02-15T00:34:30;29.47;;;18.67;;
51034;SDS011;37062;52.546;13.230;2023-02-15T00:37:01;32.53;;;20.07;;
51034;SDS011;37062;52.546;13.230;2023-02-15T00:39:29;30.43;;;19.57;;
51034;SDS011;37062;52.546;13.230;2023-02-15T00:41:58;31.87;;;19.73;;
51034;SDS011;37062;52.546;13.230;2023-02-15T00:44:26;35.07;;;21.50;;
51034;SDS011;37062;52.546;13.230;2023-02-15T00:46:55;31.93;;;20.33;;
51034;SDS011;37062;52.546;13.230;2023-02-15T00:49:23;27.93;;;18.93;;
51034;SDS011;37062;52.546;13.230;2023-02-15T00:51:54;28.57;;;19.17;;
51034;SDS011;37062;52.546;13.230;2023-02-15T00:54:22;29.63;;;20.37;;
51034;SDS011;37062;52.546;13.230;2023-02-15T00:56:50;30.37;;;18.93;;
51034;SDS011;37062;52.546;13.230;2023-02-15T00:59:18;28.92;;;18.35;;
51034;SDS011;37062;52.546;13.230;2023-02-15T01:01:46;28.23;;;18.33;;
51034;SDS011;37062;52.546;13.230;2023-02-15T01:04:15;28.67;;;18.10;;
51034;SDS011;37062;52.546;13.230;2023-02-15T01:06:43;30.10;;;18.05;;
51034;SDS011;37062;52.546;13.230;2023-02-15T01:09:12;29.63;;;18.53;;
51034;SDS011;37062;52.546;13.230;2023-02-15T01:11:40;29.97;;;18.10;;
51034;SDS011;37062;52.546;13.230;2023-02-15T01:14:09;26.17;;;17.97;;
51034;SDS011;37062;52.546;13.230;2023-02-15T01:16:37;31.83;;;20.02;;
51034;SDS011;37062;52.546;13.230;2023-02-15T01:19:06;33.75;;;20.65;;
51034;SDS011;37062;52.546;13.230;2023-02-15T01:21:34;31.77;;;20.00;;
51034;SDS011;37062;52.546;13.230;2023-02-15T01:24:02;28.83;;;18.47;;
51034;SDS011;37062;52.546;13.230;2023-02-15T01:26:32;31.27;;;19.37;;
51034;SDS011;37062;52.546;13.230;2023-02-15T01:29:00;36.37;;;20.77;;
51034;SDS011;37062;52.546;13.230;2023-02-15T01:31:28;30.33;;;19.27;;
51034;SDS011;37062;52.546;13.230;2023-02-15T01:33:56;30.60;;;18.53;;
51034;SDS011;37062;52.546;13.230;2023-02-15T01:36:25;31.87;;;19.03;;
51034;SDS011;37062;52.546;13.230;2023-02-15T01:38:53;34.70;;;21.07;;
51034;SDS011;37062;52.546;13.230;2023-02-15T01:41:21;31.10;;;20.10;;
51034;SDS011;37062;52.546;13.230;2023-02-15T01:43:56;30.03;;;19.33;;
51034;SDS011;37062;52.546;13.230;2023-02-15T01:46:27;34.20;;;20.17;;
51034;SDS011;37062;52.546;13.230;2023-02-15T01:49:00;33.00;;;19.43;;
51034;SDS011;37062;52.546;13.230;2023-02-15T01:51:32;31.17;;;19.30;;
51034;SDS011;37062;52.546;13.230;2023-02-15T01:54:05;32.37;;;20.43;;
51034;SDS011;37062;52.546;13.230;2023-02-15T01:56:40;33.97;;;20.97;;
51034;SDS011;37062;52.546;13.230;2023-02-15T01:59:11;30.73;;;20.00;;
51034;SDS011;37062;52.546;13.230;2023-02-15T02:01:44;33.40;;;21.50;;
51034;SDS011;37062;52.546;13.230;2023-02-15T02:04:13;33.70;;;20.33;;
51034;SDS011;37062;52.546;13.230;2023-02-15T02:06:46;34.00;;;20.97;;
51034;SDS011;37062;52.546;13.230;2023-02-15T02:09:15;33.43;;;20.90;;
51034;SDS011;37062;52.546;13.230;2023-02-15T02:11:44;32.23;;;19.93;;
51034;SDS011;37062;52.546;13.230;2023-02-15T02:14:16;31.87;;;20.00;;
51034;SDS011;37062;52.546;13.230;2023-02-15T02:16:47;33.47;;;20.97;;
51034;SDS011;37062;52.546;13.230;2023-02-15T02:22:46;36.20;;;21.10;;
51034;SDS011;37062;52.546;13.230;2023-02-15T02:25:52;34.57;;;20.53;;
51034;SDS011;37062;52.546;13.230;2023-02-15T02:28:50;34.17;;;20.47;;
51034;SDS011;37062;52.546;13.230;2023-02-15T02:31:47;37.40;;;22.97;;
51034;SDS011;37062;52.546;13.230;2023-02-15T02:34:36;38.13;;;21.50;;
51034;SDS011;37062;52.546;13.230;2023-02-15T02:37:12;40.70;;;23.80;;
51034;SDS011;37062;52.546;13.230;2023-02-15T02:39:51;39.90;;;22.73;;
51034;SDS011;37062;52.546;13.230;2023-02-15T02:42:25;37.07;;;21.83;;
51034;SDS011;37062;52.546;13.230;2023-02-15T02:45:02;37.23;;;21.93;;
51034;SDS011;37062;52.546;13.230;2023-02-15T02:47:33;38.00;;;22.33;;
51034;SDS011;37062;52.546;13.230;2023-02-15T02:50:11;36.97;;;22.17;;
51034;SDS011;37062;52.546;13.230;2023-02-15T02:52:42;35.63;;;22.10;;
51034;SDS011;37062;52.546;13.230;2023-02-15T02:55:13;38.77;;;23.43;;
51034;SDS011;37062;52.546;13.230;2023-02-15T02:57:48;39.07;;;23.50;;
51034;SDS011;37062;52.546;13.230;2023-02-15T03:00:22;34.57;;;21.63;;
51034;SDS011;37062;52.546;13.230;2023-02-15T03:02:53;36.37;;;22.07;;
51034;SDS011;37062;52.546;13.230;2023-02-15T03:05:32;40.33;;;23.27;;
51034;SDS011;37062;52.546;13.230;2023-02-15T03:08:05;37.35;;;22.45;;
51034;SDS011;37062;52.546;13.230;2023-02-15T03:10:36;40.50;;;23.83;;
51034;SDS011;37062;52.546;13.230;2023-02-15T03:13:07;39.67;;;23.67;;
51034;SDS011;37062;52.546;13.230;2023-02-15T03:15:36;42.17;;;24.80;;
51034;SDS011;37062;52.546;13.230;2023-02-15T03:18:29;43.03;;;24.67;;
51034;SDS011;37062;52.546;13.230;2023-02-15T03:21:02;38.33;;;23.87;;
51034;SDS011;37062;52.546;13.230;2023-02-15T03:23:34;46.27;;;25.13;;
51034;SDS011;37062;52.546;13.230;2023-02-15T03:26:06;41.03;;;23.87;;
51034;SDS011;37062;52.546;13.230;2023-02-15T03:28:38;39.13;;;23.23;;
51034;SDS011;37062;52.546;13.230;2023-02-15T03:31:09;45.83;;;25.47;;
51034;SDS011;37062;52.546;13.230;2023-02-15T03:33:42;42.40;;;24.87;;
51034;SDS011;37062;52.546;13.230;2023-02-15T03:36:18;41.90;;;24.47;;
51034;SDS011;37062;52.546;13.230;2023-02-15T03:38:51;43.00;;;24.57;;
51034;SDS011;37062;52.546;13.230;2023-02-15T03:41:26;42.27;;;24.50;;
51034;SDS011;37062;52.546;13.230;2023-02-15T03:43:59;41.13;;;24.27;;
51034;SDS011;37062;52.546;13.230;2023-02-15T03:46:32;42.10;;;23.90;;
51034;SDS011;37062;52.546;13.230;2023-02-15T03:49:05;42.87;;;25.10;;
51034;SDS011;37062;52.546;13.230;2023-02-15T03:51:40;45.23;;;26.13;;
51034;SDS011;37062;52.546;13.230;2023-02-15T03:54:12;47.20;;;26.33;;
51034;SDS011;37062;52.546;13.230;2023-02-15T03:57:03;45.77;;;25.20;;
51034;SDS011;37062;52.546;13.230;2023-02-15T03:59:49;47.13;;;25.90;;
51034;SDS011;37062;52.546;13.230;2023-02-15T04:02:38;45.10;;;26.30;;
51034;SDS011;37062;52.546;13.230;2023-02-15T04:05:10;53.07;;;28.90;;
51034;SDS011;37062;52.546;13.230;2023-02-15T04:07:40;50.47;;;28.03;;
51034;SDS011;37062;52.546;13.230;2023-02-15T04:10:10;54.27;;;29.30;;
51034;SDS011;37062;52.546;13.230;2023-02-15T04:12:56;49.07;;;27.47;;
51034;SDS011;37062;52.546;13.230;2023-02-15T04:15:24;45.50;;;27.43;;
51034;SDS011;37062;52.546;13.230;2023-02-15T04:18:09;43.60;;;24.80;;
51034;SDS011;37062;52.546;13.230;2023-02-15T04:20:37;48.17;;;26.63;;
51034;SDS011;37062;52.546;13.230;2023-02-15T04:23:24;54.43;;;29.93;;
51034;SDS011;37062;52.546;13.230;2023-02-15T04:26:10;56.43;;;30.37;;
51034;SDS011;37062;52.546;13.230;2023-02-15T04:28:38;62.83;;;33.53;;
51034;SDS011;37062;52.546;13.230;2023-02-15T04:31:06;53.33;;;29.30;;
51034;SDS011;37062;52.546;13.230;2023-02-15T04:33:34;58.50;;;31.67;;
51034;SDS011;37062;52.546;13.230;2023-02-15T04:36:03;62.07;;;33.13;;
51034;SDS011;37062;52.546;13.230;2023-02-15T04:38:33;67.13;;;32.83;;
51034;SDS011;37062;52.546;13.230;2023-02-15T04:41:02;60.23;;;31.73;;
51034;SDS011;37062;52.546;13.230;2023-02-15T04:43:30;59.67;;;32.37;;
51034;SDS011;37062;52.546;13.230;2023-02-15T04:45:58;64.13;;;33.03;;
51034;SDS011;37062;52.546;13.230;2023-02-15T04:48:26;64.10;;;32.33;;
51034;SDS011;37062;52.546;13.230;2023-02-15T04:50:55;63.67;;;33.10;;
51034;SDS011;37062;52.546;13.230;2023-02-15T04:53:23;61.13;;;32.23;;
51034;SDS011;37062;52.546;13.230;2023-02-15T04:55:52;58.50;;;31.47;;
51034;SDS011;37062;52.546;13.230;2023-02-15T04:58:20;64.13;;;31.70;;
51034;SDS011;37062;52.546;13.230;2023-02-15T05:00:49;64.17;;;32.10;;
51034;SDS011;37062;52.546;13.230;2023-02-15T05:03:17;69.23;;;34.77;;
51034;SDS011;37062;52.546;13.230;2023-02-15T05:05:45;62.83;;;33.70;;
51034;SDS011;37062;52.546;13.230;2023-02-15T05:08:13;63.03;;;34.30;;
51034;SDS011;37062;52.546;13.230;2023-02-15T05:10:41;61.20;;;32.43;;
51034;SDS011;37062;52.546;13.230;2023-02-15T05:13:11;65.77;;;33.97;;
51034;SDS011;37062;52.546;13.230;2023-02-15T05:15:39;64.53;;;33.23;;
51034;SDS011;37062;52.546;13.230;2023-02-15T05:18:10;62.50;;;33.40;;
51034;SDS011;37062;52.546;13.230;2023-02-15T05:20:38;61.87;;;32.03;;
51034;SDS011;37062;52.546;13.230;2023-02-15T05:23:06;70.93;;;33.83;;
51034;SDS011;37062;52.546;13.230;2023-02-15T05:25:34;61.43;;;31.50;;
51034;SDS011;37062;52.546;13.230;2023-02-15T05:28:21;58.93;;;31.50;;
51034;SDS011;37062;52.546;13.230;2023-02-15T05:30:57;56.57;;;30.53;;
51034;SDS011;37062;52.546;13.230;2023-02-15T05:33:30;65.87;;;33.23;;
51034;SDS011;37062;52.546;13.230;2023-02-15T05:35:59;61.87;;;33.63;;
51034;SDS011;37062;52.546;13.230;2023-02-15T05:38:28;66.60;;;33.13;;
51034;SDS011;37062;52.546;13.230;2023-02-15T05:40:56;61.90;;;33.00;;
51034;SDS011;37062;52.546;13.230;2023-02-15T05:43:26;52.87;;;30.47;;
51034;SDS011;37062;52.546;13.230;2023-02-15T05:45:54;57.30;;;30.33;;
51034;SDS011;37062;52.546;13.230;2023-02-15T05:48:24;69.17;;;34.43;;
51034;SDS011;37062;52.546;13.230;2023-02-15T05:50:56;59.50;;;32.70;;
51034;SDS011;37062;52.546;13.230;2023-02-15T05:53:26;60.40;;;31.13;;
51034;SDS011;37062;52.546;13.230;2023-02-15T05:55:54;60.07;;;32.33;;
51034;SDS011;37062;52.546;13.230;2023-02-15T05:58:28;64.77;;;33.07;;
51034;SDS011;37062;52.546;13.230;2023-02-15T06:00:57;60.90;;;33.13;;
51034;SDS011;37062;52.546;13.230;2023-02-15T06:03:26;58.07;;;31.37;;
51034;SDS011;37062;52.546;13.230;2023-02-15T06:05:55;63.97;;;31.83;;
51034;SDS011;37062;52.546;13.230;2023-02-15T06:08:23;63.00;;;31.90;;
51034;SDS011;37062;52.546;13.230;2023-02-15T06:10:51;58.63;;;31.37;;
51034;SDS011;37062;52.546;13.230;2023-02-15T06:13:19;54.67;;;30.23;;
51034;SDS011;37062;52.546;13.230;2023-02-15T06:15:48;65.33;;;33.83;;
51034;SDS011;37062;52.546;13.230;2023-02-15T06:18:17;62.93;;;33.03;;
51034;SDS011;37062;52.546;13.230;2023-02-15T06:20:45;61.20;;;33.87;;
51034;SDS011;37062;52.546;13.230;2023-02-15T06:23:14;58.27;;;30.20;;
51034;SDS011;37062;52.546;13.230;2023-02-15T06:25:42;65.10;;;32.87;;
51034;SDS011;37062;52.546;13.230;2023-02-15T06:28:11;64.13;;;32.80;;
51034;SDS011;37062;52.546;13.230;2023-02-15T06:30:40;63.47;;;32.87;;
51034;SDS011;37062;52.546;13.230;2023-02-15T06:33:09;63.70;;;33.73;;
51034;SDS011;37062;52.546;13.230;2023-02-15T06:35:38;63.80;;;32.37;;
51034;SDS011;37062;52.546;13.230;2023-02-15T06:38:06;64.00;;;32.13;;
51034;SDS011;37062;52.546;13.230;2023-02-15T06:40:34;69.30;;;33.13;;
51034;SDS011;37062;52.546;13.230;2023-02-15T06:43:02;66.07;;;32.87;;
51034;SDS011;37062;52.546;13.230;2023-02-15T06:45:30;70.33;;;34.73;;
51034;SDS011;37062;52.546;13.230;2023-02-15T06:47:59;64.50;;;33.37;;
51034;SDS011;37062;52.546;13.230;2023-02-15T06:50:28;70.80;;;34.47;;
51034;SDS011;37062;52.546;13.230;2023-02-15T06:52:56;74.90;;;34.97;;
51034;SDS011;37062;52.546;13.230;2023-02-15T06:55:25;74.67;;;36.33;;
51034;SDS011;37062;52.546;13.230;2023-02-15T06:57:54;87.93;;;37.23;;
51034;SDS011;37062;52.546;13.230;2023-02-15T07:00:22;80.80;;;36.77;;
51034;SDS011;37062;52.546;13.230;2023-02-15T07:02:52;69.57;;;34.93;;
51034;SDS011;37062;52.546;13.230;2023-02-15T07:05:23;70.67;;;34.43;;
51034;SDS011;37062;52.546;13.230;2023-02-15T07:07:58;75.53;;;34.93;;
51034;SDS011;37062;52.546;13.230;2023-02-15T07:10:26;73.20;;;33.83;;
51034;SDS011;37062;52.546;13.230;2023-02-15T07:12:55;76.63;;;35.63;;
51034;SDS011;37062;52.546;13.230;2023-02-15T07:15:22;69.27;;;33.13;;
51034;SDS011;37062;52.546;13.230;2023-02-15T07:17:50;67.07;;;32.63;;
51034;SDS011;37062;52.546;13.230;2023-02-15T07:20:19;74.57;;;34.73;;
51034;SDS011;37062;52.546;13.230;2023-02-15T07:22:48;71.20;;;32.57;;
51034;SDS011;37062;52.546;13.230;2023-02-15T07:25:19;80.50;;;33.60;;
51034;SDS011;37062;52.546;13.230;2023-02-15T07:27:47;77.47;;;33.77;;
51034;SDS011;37062;52.546;13.230;2023-02-15T07:30:16;76.90;;;32.13;;
51034;SDS011;37062;52.546;13.230;2023-02-15T07:32:44;78.43;;;32.53;;
51034;SDS011;37062;52.546;13.230;2023-02-15T07:35:33;72.93;;;33.93;;
51034;SDS011;37062;52.546;13.230;2023-02-15T07:38:01;83.50;;;33.90;;
51034;SDS011;37062;52.546;13.230;2023-02-15T07:40:31;65.10;;;31.77;;
51034;SDS011;37062;52.546;13.230;2023-02-15T07:42:59;67.07;;;32.43;;
51034;SDS011;37062;52.546;13.230;2023-02-15T07:45:27;67.43;;;31.93;;
51034;SDS011;37062;52.546;13.230;2023-02-15T07:47:55;70.77;;;31.93;;
51034;SDS011;37062;52.546;13.230;2023-02-15T07:50:23;62.33;;;29.57;;
51034;SDS011;37062;52.546;13.230;2023-02-15T07:52:51;79.00;;;31.93;;
51034;SDS011;37062;52.546;13.230;2023-02-15T07:55:20;69.37;;;33.10;;
51034;SDS011;37062;52.546;13.230;2023-02-15T07:57:49;69.90;;;31.93;;
51034;SDS011;37062;52.546;13.230;2023-02-15T08:00:20;64.83;;;30.40;;
51034;SDS011;37062;52.546;13.230;2023-02-15T08:02:51;66.50;;;30.67;;
51034;SDS011;37062;52.546;13.230;2023-02-15T08:05:35;64.43;;;31.47;;
51034;SDS011;37062;52.546;13.230;2023-02-15T08:08:03;62.60;;;29.20;;
51034;SDS011;37062;52.546;13.230;2023-02-15T08:10:32;76.33;;;29.53;;
51034;SDS011;37062;52.546;13.230;2023-02-15T08:13:19;55.13;;;30.23;;
51034;SDS011;37062;52.546;13.230;2023-02-15T08:15:47;57.90;;;29.83;;
51034;SDS011;37062;52.546;13.230;2023-02-15T08:18:16;54.90;;;28.57;;
51034;SDS011;37062;52.546;13.230;2023-02-15T08:20:48;53.27;;;28.07;;
51034;SDS011;37062;52.546;13.230;2023-02-15T08:23:16;58.77;;;30.03;;
51034;SDS011;37062;52.546;13.230;2023-02-15T08:25:45;55.17;;;29.00;;
51034;SDS011;37062;52.546;13.230;2023-02-15T08:28:13;53.73;;;28.20;;
51034;SDS011;37062;52.546;13.230;2023-02-15T08:30:42;65.03;;;27.77;;
51034;SDS011;37062;52.546;13.230;2023-02-15T08:33:11;57.23;;;28.00;;
51034;SDS011;37062;52.546;13.230;2023-02-15T08:35:39;53.37;;;27.67;;
51034;SDS011;37062;52.546;13.230;2023-02-15T08:38:07;51.10;;;27.30;;
51034;SDS011;37062;52.546;13.230;2023-02-15T08:40:35;50.60;;;28.03;;
51034;SDS011;37062;52.546;13.230;2023-02-15T08:43:04;50.20;;;27.17;;
51034;SDS011;37062;52.546;13.230;2023-02-15T08:45:33;46.60;;;25.07;;
51034;SDS011;37062;52.546;13.230;2023-02-15T08:48:03;46.13;;;26.20;;
51034;SDS011;37062;52.546;13.230;2023-02-15T08:50:31;42.43;;;25.03;;
51034;SDS011;37062;52.546;13.230;2023-02-15T08:52:59;39.60;;;23.70;;
51034;SDS011;37062;52.546;13.230;2023-02-15T08:55:27;40.40;;;24.13;;
51034;SDS011;37062;52.546;13.230;2023-02-15T08:57:55;34.07;;;21.53;;
51034;SDS011;37062;52.546;13.230;2023-02-15T09:00:24;37.90;;;23.33;;
51034;SDS011;37062;52.546;13.230;2023-02-15T09:02:53;38.13;;;22.77;;
51034;SDS011;37062;52.546;13.230;2023-02-15T09:05:22;39.53;;;23.27;;
51034;SDS011;37062;52.546;13.230;2023-02-15T09:07:50;36.47;;;23.00;;
51034;SDS011;37062;52.546;13.230;2023-02-15T09:10:19;37.90;;;23.60;;
51034;SDS011;37062;52.546;13.230;2023-02-15T09:12:47;36.10;;;22.40;;
51034;SDS011;37062;52.546;13.230;2023-02-15T09:15:16;39.05;;;22.60;;
51034;SDS011;37062;52.546;13.230;2023-02-15T09:17:44;36.90;;;23.03;;
51034;SDS011;37062;52.546;13.230;2023-02-15T09:20:12;36.67;;;22.97;;
51034;SDS011;37062;52.546;13.230;2023-02-15T09:22:42;32.50;;;21.20;;
51034;SDS011;37062;52.546;13.230;2023-02-15T09:25:10;35.13;;;22.80;;
51034;SDS011;37062;52.546;13.230;2023-02-15T09:27:39;36.72;;;22.15;;
51034;SDS011;37062;52.546;13.230;2023-02-15T09:30:08;34.27;;;22.20;;
51034;SDS011;37062;52.546;13.230;2023-02-15T09:32:37;36.13;;;22.50;;
51034;SDS011;37062;52.546;13.230;2023-02-15T09:35:06;33.85;;;22.05;;
51034;SDS011;37062;52.546;13.230;2023-02-15T09:37:34;34.00;;;21.30;;
51034;SDS011;37062;52.546;13.230;2023-02-15T09:40:04;33.23;;;21.30;;
51034;SDS011;37062;52.546;13.230;2023-02-15T09:45:41;36.45;;;23.60;;
51034;SDS011;37062;52.546;13.230;2023-02-15T09:48:30;32.17;;;21.52;;
51034;SDS011;37062;52.546;13.230;2023-02-15T09:51:22;37.97;;;23.90;;
51034;SDS011;37062;52.546;13.230;2023-02-15T09:54:04;37.40;;;23.97;;
51034;SDS011;37062;52.546;13.230;2023-02-15T09:56:42;40.60;;;25.20;;
51034;SDS011;37062;52.546;13.230;2023-02-15T09:59:18;35.57;;;22.53;;
51034;SDS011;37062;52.546;13.230;2023-02-15T10:01:57;38.47;;;24.38;;
51034;SDS011;37062;52.546;13.230;2023-02-15T10:04:38;36.80;;;23.23;;
51034;SDS011;37062;52.546;13.230;2023-02-15T10:07:20;39.10;;;22.77;;
51034;SDS011;37062;52.546;13.230;2023-02-15T10:10:08;35.13;;;23.20;;
51034;SDS011;37062;52.546;13.230;2023-02-15T10:12:52;39.33;;;25.30;;
51034;SDS011;37062;52.546;13.230;2023-02-15T10:15:30;39.20;;;25.13;;
51034;SDS011;37062;52.546;13.230;2023-02-15T10:18:23;35.80;;;22.90;;
51034;SDS011;37062;52.546;13.230;2023-02-15T10:21:04;34.70;;;22.15;;
51034;SDS011;37062;52.546;13.230;2023-02-15T10:23:53;35.38;;;23.77;;
51034;SDS011;37062;52.546;13.230;2023-02-15T10:26:42;41.75;;;24.88;;
51034;SDS011;37062;52.546;13.230;2023-02-15T10:29:15;38.67;;;22.98;;
51034;SDS011;37062;52.546;13.230;2023-02-15T10:31:55;33.90;;;22.30;;
51034;SDS011;37062;52.546;13.230;2023-02-15T10:34:31;34.78;;;22.98;;
51034;SDS011;37062;52.546;13.230;2023-02-15T10:37:18;35.53;;;23.00;;
51034;SDS011;37062;52.546;13.230;2023-02-15T10:40:01;31.98;;;20.65;;
51034;SDS011;37062;52.546;13.230;2023-02-15T10:42:39;36.88;;;22.23;;
51034;SDS011;37062;52.546;13.230;2023-02-15T10:45:23;35.35;;;22.83;;
51034;SDS011;37062;52.546;13.230;2023-02-15T10:48:08;36.20;;;23.98;;
51034;SDS011;37062;52.546;13.230;2023-02-15T10:50:49;38.42;;;24.08;;
51034;SDS011;37062;52.546;13.230;2023-02-15T10:53:27;35.45;;;22.98;;
51034;SDS011;37062;52.546;13.230;2023-02-15T10:56:09;33.75;;;22.88;;
51034;SDS011;37062;52.546;13.230;2023-02-15T10:58:50;37.92;;;24.27;;
51034;SDS011;37062;52.546;13.230;2023-02-15T11:01:30;36.05;;;23.23;;
51034;SDS011;37062;52.546;13.230;2023-02-15T11:04:06;39.63;;;23.98;;
51034;SDS011;37062;52.546;13.230;2023-02-15T11:06:44;38.90;;;23.73;;
51034;SDS011;37062;52.546;13.230;2023-02-15T11:09:17;37.75;;;23.90;;
51034;SDS011;37062;52.546;13.230;2023-02-15T11:11:49;35.88;;;21.35;;
51034;SDS011;37062;52.546;13.230;2023-02-15T11:14:21;38.70;;;24.75;;
51034;SDS011;37062;52.546;13.230;2023-02-15T11:16:59;36.85;;;22.88;;
51034;SDS011;37062;52.546;13.230;2023-02-15T11:19:33;36.30;;;23.00;;
51034;SDS011;37062;52.546;13.230;2023-02-15T11:22:03;36.08;;;22.85;;
51034;SDS011;37062;52.546;13.230;2023-02-15T11:24:34;34.65;;;21.45;;
51034;SDS011;37062;52.546;13.230;2023-02-15T11:27:15;37.22;;;22.45;;
51034;SDS011;37062;52.546;13.230;2023-02-15T11:29:54;33.35;;;21.70;;
51034;SDS011;37062;52.546;13.230;2023-02-15T11:32:29;32.45;;;22.20;;
51034;SDS011;37062;52.546;13.230;2023-02-15T11:35:01;36.65;;;22.70;;
51034;SDS011;37062;52.546;13.230;2023-02-15T11:37:33;31.58;;;21.17;;
51034;SDS011;37062;52.546;13.230;2023-02-15T11:40:13;34.55;;;22.58;;
51034;SDS011;37062;52.546;13.230;2023-02-15T11:42:46;30.60;;;20.80;;
51034;SDS011;37062;52.546;13.230;2023-02-15T11:45:19;30.52;;;19.95;;
51034;SDS011;37062;52.546;13.230;2023-02-15T11:47:55;25.73;;;17.70;;
51034;SDS011;37062;52.546;13.230;2023-02-15T11:50:24;31.25;;;20.42;;
51034;SDS011;37062;52.546;13.230;2023-02-15T11:52:56;36.42;;;22.55;;
51034;SDS011;37062;52.546;13.230;2023-02-15T11:55:27;34.33;;;22.17;;
51034;SDS011;37062;52.546;13.230;2023-02-15T11:57:57;33.38;;;21.08;;
51034;SDS011;37062;52.546;13.230;2023-02-15T12:00:32;34.97;;;22.02;;
51034;SDS011;37062;52.546;13.230;2023-02-15T12:03:12;32.78;;;20.75;;
51034;SDS011;37062;52.546;13.230;2023-02-15T12:05:45;32.60;;;20.70;;
51034;SDS011;37062;52.546;13.230;2023-02-15T12:08:17;34.15;;;20.30;;
51034;SDS011;37062;52.546;13.230;2023-02-15T12:10:52;33.03;;;19.85;;
51034;SDS011;37062;52.546;13.230;2023-02-15T12:13:25;30.98;;;19.98;;
51034;SDS011;37062;52.546;13.230;2023-02-15T12:15:54;31.08;;;20.13;;
51034;SDS011;37062;52.546;13.230;2023-02-15T12:18:33;34.13;;;21.15;;
51034;SDS011;37062;52.546;13.230;2023-02-15T12:21:05;32.15;;;20.35;;
51034;SDS011;37062;52.546;13.230;2023-02-15T12:23:39;30.90;;;20.48;;
51034;SDS011;37062;52.546;13.230;2023-02-15T12:26:10;32.22;;;20.92;;
51034;SDS011;37062;52.546;13.230;2023-02-15T12:28:40;31.23;;;19.35;;
51034;SDS011;37062;52.546;13.230;2023-02-15T12:31:20;33.22;;;20.02;;
51034;SDS011;37062;52.546;13.230;2023-02-15T12:33:52;31.85;;;20.02;;
51034;SDS011;37062;52.546;13.230;2023-02-15T12:36:24;29.00;;;19.35;;
51034;SDS011;37062;52.546;13.230;2023-02-15T12:39:09;27.13;;;18.48;;
51034;SDS011;37062;52.546;13.230;2023-02-15T12:41:46;27.92;;;18.70;;
51034;SDS011;37062;52.546;13.230;2023-02-15T12:44:25;32.83;;;19.63;;
51034;SDS011;37062;52.546;13.230;2023-02-15T12:46:56;26.73;;;18.20;;
51034;SDS011;37062;52.546;13.230;2023-02-15T12:49:28;29.48;;;19.55;;
51034;SDS011;37062;52.546;13.230;2023-02-15T12:51:57;26.48;;;18.52;;
51034;SDS011;37062;52.546;13.230;2023-02-15T12:57:14;25.88;;;17.52;;
51034;SDS011;37062;52.546;13.230;2023-02-15T12:59:49;26.02;;;17.73;;
51034;SDS011;37062;52.546;13.230;2023-02-15T13:02:21;26.92;;;17.58;;
51034;SDS011;37062;52.546;13.230;2023-02-15T13:04:55;26.33;;;17.38;;
51034;SDS011;37062;52.546;13.230;2023-02-15T13:07:31;29.27;;;18.42;;
51034;SDS011;37062;52.546;13.230;2023-02-15T13:09:59;24.80;;;17.20;;
51034;SDS011;37062;52.546;13.230;2023-02-15T13:12:28;28.30;;;18.52;;
51034;SDS011;37062;52.546;13.230;2023-02-15T13:14:59;26.75;;;19.23;;
51034;SDS011;37062;52.546;13.230;2023-02-15T13:17:29;29.38;;;17.85;;
51034;SDS011;37062;52.546;13.230;2023-02-15T13:20:03;25.58;;;19.17;;
51034;SDS011;37062;52.546;13.230;2023-02-15T13:22:37;27.38;;;19.38;;
51034;SDS011;37062;52.546;13.230;2023-02-15T13:25:11;24.20;;;17.27;;
51034;SDS011;37062;52.546;13.230;2023-02-15T13:27:42;27.58;;;18.27;;
51034;SDS011;37062;52.546;13.230;2023-02-15T13:30:16;25.85;;;18.30;;
51034;SDS011;37062;52.546;13.230;2023-02-15T13:32:54;28.80;;;19.02;;
51034;SDS011;37062;52.546;13.230;2023-02-15T13:35:26;28.92;;;18.75;;
51034;SDS011;37062;52.546;13.230;2023-02-15T13:38:14;26.23;;;18.00;;
51034;SDS011;37062;52.546;13.230;2023-02-15T13:41:03;27.60;;;17.73;;
51034;SDS011;37062;52.546;13.230;2023-02-15T13:43:38;30.88;;;18.90;;
51034;SDS011;37062;52.546;13.230;2023-02-15T13:46:19;26.35;;;17.05;;
51034;SDS011;37062;52.546;13.230;2023-02-15T13:48:56;27.00;;;17.35;;
51034;SDS011;37062;52.546;13.230;2023-02-15T13:51:38;22.13;;;16.17;;
51034;SDS011;37062;52.546;13.230;2023-02-15T13:57:27;22.02;;;15.20;;
51034;SDS011;37062;52.546;13.230;2023-02-15T14:00:17;19.10;;;13.77;;
51034;SDS011;37062;52.546;13.230;2023-02-15T14:03:03;21.92;;;15.77;;
51034;SDS011;37062;52.546;13.230;2023-02-15T14:05:56;25.58;;;15.23;;
51034;SDS011;37062;52.546;13.230;2023-02-15T14:08:44;23.02;;;15.90;;
51034;SDS011;37062;52.546;13.230;2023-02-15T14:11:23;23.17;;;15.63;;
51034;SDS011;37062;52.546;13.230;2023-02-15T14:14:06;22.50;;;15.82;;
51034;SDS011;37062;52.546;13.230;2023-02-15T14:16:54;21.50;;;14.80;;
51034;SDS011;37062;52.546;13.230;2023-02-15T14:19:34;21.98;;;14.82;;
51034;SDS011;37062;52.546;13.230;2023-02-15T14:22:10;21.83;;;15.52;;
51034;SDS011;37062;52.546;13.230;2023-02-15T14:24:50;23.75;;;15.38;;
51034;SDS011;37062;52.546;13.230;2023-02-15T14:27:27;25.20;;;15.85;;
51034;SDS011;37062;52.546;13.230;2023-02-15T14:30:13;23.98;;;16.17;;
51034;SDS011;37062;52.546;13.230;2023-02-15T14:32:47;23.65;;;16.30;;
51034;SDS011;37062;52.546;13.230;2023-02-15T14:35:20;28.25;;;16.77;;
51034;SDS011;37062;52.546;13.230;2023-02-15T14:37:52;21.48;;;15.75;;
51034;SDS011;37062;52.546;13.230;2023-02-15T14:40:31;23.08;;;14.63;;
51034;SDS011;37062;52.546;13.230;2023-02-15T14:43:25;23.73;;;15.52;;
51034;SDS011;37062;52.546;13.230;2023-02-15T14:46:00;22.63;;;14.75;;
51034;SDS011;37062;52.546;13.230;2023-02-15T14:48:37;26.02;;;16.60;;
51034;SDS011;37062;52.546;13.230;2023-02-15T14:51:12;21.90;;;15.60;;
51034;SDS011;37062;52.546;13.230;2023-02-15T14:57:26;23.55;;;15.05;;
51034;SDS011;37062;52.546;13.230;2023-02-15T15:00:03;20.98;;;14.63;;